Terminal Aerodrome Forecast
Issued by NWS Wilmington, OH

Current Version | Previous Version | Graphics & Text | Print | Product List | Glossary On
Versions: 1 2 3 4 5 6 7 8 9 10 11 12 13 14 15 16 17 18 19 20 21 22 23 24
000
FTUS41 KILN 260200 AAA
TAFDAY
TAF AMD
KDAY 260206Z 2602/2624 03015G21KT 1 1/2SM -SN BR SCT010 OVC015
     FM260300 04015G23KT 1 1/2SM -SN OVC012
     FM260500 02015G23KT 3SM -SN OVC010
     FM260900 36015G23KT P6SM OVC012
     FM261100 36013KT P6SM OVC015
     FM261800 33010KT P6SM SCT015 BKN250=

USA.gov is the U.S. government's official web portal to all federal, state and local government web resources and services.